sensor_id;sensor_type;location;lat;lon;timestamp;P1;durP1;ratioP1;P2;durP2;ratioP2
3155;SDS011;1588;50.892;7.082;2024-02-21T00:00:57;9.30;;;4.73;;
3155;SDS011;1588;50.892;7.082;2024-02-21T00:06:02;11.77;;;5.10;;
3155;SDS011;1588;50.892;7.082;2024-02-21T00:11:06;17.60;;;4.90;;
3155;SDS011;1588;50.892;7.082;2024-02-21T00:16:08;9.83;;;4.50;;
3155;SDS011;1588;50.892;7.082;2024-02-21T00:21:11;17.20;;;5.27;;
3155;SDS011;1588;50.892;7.082;2024-02-21T00:26:19;11.40;;;4.70;;
3155;SDS011;1588;50.892;7.082;2024-02-21T00:31:21;10.90;;;4.60;;
3155;SDS011;1588;50.892;7.082;2024-02-21T00:36:24;21.70;;;5.83;;
3155;SDS011;1588;50.892;7.082;2024-02-21T00:41:27;13.83;;;5.17;;
3155;SDS011;1588;50.892;7.082;2024-02-21T00:46:30;10.83;;;4.33;;
3155;SDS011;1588;50.892;7.082;2024-02-21T00:51:32;15.57;;;4.80;;
3155;SDS011;1588;50.892;7.082;2024-02-21T00:56:36;11.10;;;4.73;;
3155;SDS011;1588;50.892;7.082;2024-02-21T01:01:38;13.07;;;5.13;;
3155;SDS011;1588;50.892;7.082;2024-02-21T01:06:42;12.67;;;4.90;;
3155;SDS011;1588;50.892;7.082;2024-02-21T01:11:46;15.87;;;5.43;;
3155;SDS011;1588;50.892;7.082;2024-02-21T01:16:48;13.93;;;5.30;;
3155;SDS011;1588;50.892;7.082;2024-02-21T01:21:50;10.30;;;4.43;;
3155;SDS011;1588;50.892;7.082;2024-02-21T01:26:54;12.67;;;4.60;;
3155;SDS011;1588;50.892;7.082;2024-02-21T01:31:56;15.33;;;5.83;;
3155;SDS011;1588;50.892;7.082;2024-02-21T01:36:58;15.67;;;5.80;;
3155;SDS011;1588;50.892;7.082;2024-02-21T01:42:06;9.77;;;4.10;;
3155;SDS011;1588;50.892;7.082;2024-02-21T01:47:10;15.00;;;4.80;;
3155;SDS011;1588;50.892;7.082;2024-02-21T01:52:14;14.17;;;5.30;;
3155;SDS011;1588;50.892;7.082;2024-02-21T01:57:19;14.20;;;4.67;;
3155;SDS011;1588;50.892;7.082;2024-02-21T02:02:21;15.90;;;5.07;;
3155;SDS011;1588;50.892;7.082;2024-02-21T02:07:24;12.50;;;4.00;;
3155;SDS011;1588;50.892;7.082;2024-02-21T02:12:28;12.03;;;5.10;;
3155;SDS011;1588;50.892;7.082;2024-02-21T02:17:30;12.10;;;3.90;;
3155;SDS011;1588;50.892;7.082;2024-02-21T02:22:33;18.07;;;4.67;;
3155;SDS011;1588;50.892;7.082;2024-02-21T02:27:43;15.83;;;4.37;;
3155;SDS011;1588;50.892;7.082;2024-02-21T02:32:46;14.40;;;4.37;;
3155;SDS011;1588;50.892;7.082;2024-02-21T02:37:48;16.90;;;5.10;;
3155;SDS011;1588;50.892;7.082;2024-02-21T02:42:52;13.00;;;4.27;;
3155;SDS011;1588;50.892;7.082;2024-02-21T02:47:55;13.23;;;5.07;;
3155;SDS011;1588;50.892;7.082;2024-02-21T02:52:58;14.00;;;4.80;;
3155;SDS011;1588;50.892;7.082;2024-02-21T02:58:02;20.20;;;5.17;;
3155;SDS011;1588;50.892;7.082;2024-02-21T03:03:05;13.00;;;4.20;;
3155;SDS011;1588;50.892;7.082;2024-02-21T03:08:09;15.80;;;4.80;;
3155;SDS011;1588;50.892;7.082;2024-02-21T03:13:12;17.00;;;4.27;;
3155;SDS011;1588;50.892;7.082;2024-02-21T03:18:15;11.50;;;3.77;;
3155;SDS011;1588;50.892;7.082;2024-02-21T03:23:17;13.23;;;4.37;;
3155;SDS011;1588;50.892;7.082;2024-02-21T03:28:21;11.10;;;4.23;;
3155;SDS011;1588;50.892;7.082;2024-02-21T03:33:23;16.63;;;4.37;;
3155;SDS011;1588;50.892;7.082;2024-02-21T03:38:25;9.23;;;3.70;;
3155;SDS011;1588;50.892;7.082;2024-02-21T03:43:29;22.87;;;5.03;;
3155;SDS011;1588;50.892;7.082;2024-02-21T03:48:32;15.40;;;3.80;;
3155;SDS011;1588;50.892;7.082;2024-02-21T03:53:34;9.10;;;4.23;;
3155;SDS011;1588;50.892;7.082;2024-02-21T03:58:38;7.30;;;3.43;;
3155;SDS011;1588;50.892;7.082;2024-02-21T04:03:40;6.77;;;3.40;;
3155;SDS011;1588;50.892;7.082;2024-02-21T04:08:42;13.33;;;4.00;;
3155;SDS011;1588;50.892;7.082;2024-02-21T04:13:46;8.60;;;3.77;;
3155;SDS011;1588;50.892;7.082;2024-02-21T04:18:50;14.80;;;4.50;;
3155;SDS011;1588;50.892;7.082;2024-02-21T04:23:52;12.70;;;3.77;;
3155;SDS011;1588;50.892;7.082;2024-02-21T04:28:58;9.50;;;3.70;;
3155;SDS011;1588;50.892;7.082;2024-02-21T04:34:01;13.00;;;3.60;;
3155;SDS011;1588;50.892;7.082;2024-02-21T04:39:04;20.53;;;4.20;;
3155;SDS011;1588;50.892;7.082;2024-02-21T04:44:07;8.60;;;4.37;;
3155;SDS011;1588;50.892;7.082;2024-02-21T04:49:10;22.27;;;4.30;;
3155;SDS011;1588;50.892;7.082;2024-02-21T04:54:12;8.80;;;4.20;;
3155;SDS011;1588;50.892;7.082;2024-02-21T04:59:16;13.53;;;3.30;;
3155;SDS011;1588;50.892;7.082;2024-02-21T05:04:18;13.33;;;3.90;;
3155;SDS011;1588;50.892;7.082;2024-02-21T05:09:20;10.93;;;3.27;;
3155;SDS011;1588;50.892;7.082;2024-02-21T05:14:24;11.90;;;3.87;;
3155;SDS011;1588;50.892;7.082;2024-02-21T05:19:27;13.03;;;4.00;;
3155;SDS011;1588;50.892;7.082;2024-02-21T05:24:29;9.43;;;3.40;;
3155;SDS011;1588;50.892;7.082;2024-02-21T05:29:33;7.57;;;3.47;;
3155;SDS011;1588;50.892;7.082;2024-02-21T05:34:39;22.90;;;3.47;;
3155;SDS011;1588;50.892;7.082;2024-02-21T05:39:42;16.63;;;4.37;;
3155;SDS011;1588;50.892;7.082;2024-02-21T05:44:46;9.13;;;3.37;;
3155;SDS011;1588;50.892;7.082;2024-02-21T05:49:48;11.97;;;3.63;;
3155;SDS011;1588;50.892;7.082;2024-02-21T05:54:54;13.60;;;3.30;;
3155;SDS011;1588;50.892;7.082;2024-02-21T05:59:57;8.33;;;2.77;;
3155;SDS011;1588;50.892;7.082;2024-02-21T06:05:00;16.57;;;3.53;;
3155;SDS011;1588;50.892;7.082;2024-02-21T06:10:03;9.83;;;3.17;;
3155;SDS011;1588;50.892;7.082;2024-02-21T06:15:07;8.60;;;3.40;;
3155;SDS011;1588;50.892;7.082;2024-02-21T06:20:11;7.47;;;3.60;;
3155;SDS011;1588;50.892;7.082;2024-02-21T06:25:13;13.23;;;3.67;;
3155;SDS011;1588;50.892;7.082;2024-02-21T06:30:17;9.00;;;3.60;;
3155;SDS011;1588;50.892;7.082;2024-02-21T06:35:19;7.63;;;2.87;;
3155;SDS011;1588;50.892;7.082;2024-02-21T06:40:22;8.37;;;3.03;;
3155;SDS011;1588;50.892;7.082;2024-02-21T06:45:26;8.90;;;3.70;;
3155;SDS011;1588;50.892;7.082;2024-02-21T06:50:29;20.27;;;4.30;;
3155;SDS011;1588;50.892;7.082;2024-02-21T06:55:32;11.60;;;2.67;;
3155;SDS011;1588;50.892;7.082;2024-02-21T07:00:36;6.27;;;3.20;;
3155;SDS011;1588;50.892;7.082;2024-02-21T07:05:38;11.83;;;3.40;;
3155;SDS011;1588;50.892;7.082;2024-02-21T07:10:40;5.00;;;2.93;;
3155;SDS011;1588;50.892;7.082;2024-02-21T07:15:44;8.47;;;2.63;;
3155;SDS011;1588;50.892;7.082;2024-02-21T07:20:47;4.50;;;3.10;;
3155;SDS011;1588;50.892;7.082;2024-02-21T07:25:49;8.20;;;3.20;;
3155;SDS011;1588;50.892;7.082;2024-02-21T07:30:53;11.60;;;3.37;;
3155;SDS011;1588;50.892;7.082;2024-02-21T07:35:56;17.13;;;3.17;;
3155;SDS011;1588;50.892;7.082;2024-02-21T07:40:58;11.03;;;3.73;;
3155;SDS011;1588;50.892;7.082;2024-02-21T07:46:01;12.13;;;3.40;;
3155;SDS011;1588;50.892;7.082;2024-02-21T07:51:04;5.73;;;2.53;;
3155;SDS011;1588;50.892;7.082;2024-02-21T07:56:07;10.73;;;3.73;;
3155;SDS011;1588;50.892;7.082;2024-02-21T08:01:11;8.70;;;3.80;;
3155;SDS011;1588;50.892;7.082;2024-02-21T08:06:19;9.93;;;3.83;;
3155;SDS011;1588;50.892;7.082;2024-02-21T08:11:22;9.10;;;3.67;;
3155;SDS011;1588;50.892;7.082;2024-02-21T08:16:25;22.00;;;4.50;;
3155;SDS011;1588;50.892;7.082;2024-02-21T08:21:28;12.77;;;4.00;;
3155;SDS011;1588;50.892;7.082;2024-02-21T08:26:44;34.50;;;4.30;;
3155;SDS011;1588;50.892;7.082;2024-02-21T08:31:48;12.03;;;4.37;;
3155;SDS011;1588;50.892;7.082;2024-02-21T08:36:50;21.23;;;4.00;;
3155;SDS011;1588;50.892;7.082;2024-02-21T08:41:52;29.70;;;4.97;;
3155;SDS011;1588;50.892;7.082;2024-02-21T08:46:58;9.93;;;3.33;;
3155;SDS011;1588;50.892;7.082;2024-02-21T08:52:04;16.40;;;3.67;;
3155;SDS011;1588;50.892;7.082;2024-02-21T08:57:06;21.90;;;3.53;;
3155;SDS011;1588;50.892;7.082;2024-02-21T09:02:10;15.33;;;4.33;;
3155;SDS011;1588;50.892;7.082;2024-02-21T09:07:12;6.73;;;3.07;;
3155;SDS011;1588;50.892;7.082;2024-02-21T09:12:15;10.43;;;3.20;;
3155;SDS011;1588;50.892;7.082;2024-02-21T09:17:18;9.83;;;3.70;;
3155;SDS011;1588;50.892;7.082;2024-02-21T09:22:21;9.40;;;3.53;;
3155;SDS011;1588;50.892;7.082;2024-02-21T09:27:24;9.67;;;3.77;;
3155;SDS011;1588;50.892;7.082;2024-02-21T09:32:27;15.37;;;3.70;;
3155;SDS011;1588;50.892;7.082;2024-02-21T09:37:30;8.10;;;3.40;;
3155;SDS011;1588;50.892;7.082;2024-02-21T09:42:34;11.83;;;3.10;;
3155;SDS011;1588;50.892;7.082;2024-02-21T09:47:43;10.50;;;2.80;;
3155;SDS011;1588;50.892;7.082;2024-02-21T09:52:58;12.90;;;3.80;;
3155;SDS011;1588;50.892;7.082;2024-02-21T09:58:03;12.90;;;3.03;;
3155;SDS011;1588;50.892;7.082;2024-02-21T10:03:08;11.70;;;3.40;;
3155;SDS011;1588;50.892;7.082;2024-02-21T10:08:13;9.73;;;3.50;;
3155;SDS011;1588;50.892;7.082;2024-02-21T10:13:23;9.43;;;3.20;;
3155;SDS011;1588;50.892;7.082;2024-02-21T10:18:28;9.97;;;3.53;;
3155;SDS011;1588;50.892;7.082;2024-02-21T10:23:40;11.77;;;3.80;;
3155;SDS011;1588;50.892;7.082;2024-02-21T10:28:43;11.97;;;3.43;;
3155;SDS011;1588;50.892;7.082;2024-02-21T10:33:54;4.10;;;2.40;;
3155;SDS011;1588;50.892;7.082;2024-02-21T10:38:57;11.63;;;3.37;;
3155;SDS011;1588;50.892;7.082;2024-02-21T10:44:00;7.50;;;3.40;;
3155;SDS011;1588;50.892;7.082;2024-02-21T10:49:10;11.73;;;3.07;;
3155;SDS011;1588;50.892;7.082;2024-02-21T10:54:19;13.40;;;3.97;;
3155;SDS011;1588;50.892;7.082;2024-02-21T10:59:32;11.47;;;2.97;;
3155;SDS011;1588;50.892;7.082;2024-02-21T11:04:36;14.40;;;4.00;;
3155;SDS011;1588;50.892;7.082;2024-02-21T11:09:40;13.63;;;3.50;;
3155;SDS011;1588;50.892;7.082;2024-02-21T11:14:45;9.00;;;3.47;;
3155;SDS011;1588;50.892;7.082;2024-02-21T11:19:52;7.47;;;3.13;;
3155;SDS011;1588;50.892;7.082;2024-02-21T11:25:09;10.93;;;2.40;;
3155;SDS011;1588;50.892;7.082;2024-02-21T11:30:14;14.43;;;3.13;;
3155;SDS011;1588;50.892;7.082;2024-02-21T11:35:20;7.50;;;2.90;;
3155;SDS011;1588;50.892;7.082;2024-02-21T11:40:22;4.57;;;2.50;;
3155;SDS011;1588;50.892;7.082;2024-02-21T11:45:25;5.30;;;2.77;;
3155;SDS011;1588;50.892;7.082;2024-02-21T11:50:29;8.97;;;3.20;;
3155;SDS011;1588;50.892;7.082;2024-02-21T11:55:32;12.53;;;3.80;;
3155;SDS011;1588;50.892;7.082;2024-02-21T12:00:35;7.73;;;3.50;;
3155;SDS011;1588;50.892;7.082;2024-02-21T12:05:38;7.90;;;3.27;;
3155;SDS011;1588;50.892;7.082;2024-02-21T12:10:41;13.47;;;3.83;;
3155;SDS011;1588;50.892;7.082;2024-02-21T12:15:47;7.10;;;3.07;;
3155;SDS011;1588;50.892;7.082;2024-02-21T12:20:51;12.03;;;3.20;;
3155;SDS011;1588;50.892;7.082;2024-02-21T12:25:55;9.90;;;3.20;;
3155;SDS011;1588;50.892;7.082;2024-02-21T12:30:58;11.30;;;2.50;;
3155;SDS011;1588;50.892;7.082;2024-02-21T12:36:01;12.53;;;3.17;;
3155;SDS011;1588;50.892;7.082;2024-02-21T12:41:04;9.90;;;2.87;;
3155;SDS011;1588;50.892;7.082;2024-02-21T12:46:08;4.97;;;2.53;;
3155;SDS011;1588;50.892;7.082;2024-02-21T12:51:11;5.20;;;3.10;;
3155;SDS011;1588;50.892;7.082;2024-02-21T12:56:14;13.20;;;3.00;;
3155;SDS011;1588;50.892;7.082;2024-02-21T13:01:16;7.60;;;2.70;;
3155;SDS011;1588;50.892;7.082;2024-02-21T13:06:20;10.93;;;3.07;;
3155;SDS011;1588;50.892;7.082;2024-02-21T13:11:22;8.77;;;2.67;;
3155;SDS011;1588;50.892;7.082;2024-02-21T13:16:32;7.57;;;2.33;;
3155;SDS011;1588;50.892;7.082;2024-02-21T13:21:41;8.30;;;2.97;;
3155;SDS011;1588;50.892;7.082;2024-02-21T13:26:43;6.90;;;2.70;;
3155;SDS011;1588;50.892;7.082;2024-02-21T13:31:46;4.80;;;2.53;;
3155;SDS011;1588;50.892;7.082;2024-02-21T13:36:50;8.57;;;3.10;;
3155;SDS011;1588;50.892;7.082;2024-02-21T13:41:52;9.70;;;2.90;;
3155;SDS011;1588;50.892;7.082;2024-02-21T13:46:54;8.83;;;2.83;;
3155;SDS011;1588;50.892;7.082;2024-02-21T13:51:58;9.30;;;2.67;;
3155;SDS011;1588;50.892;7.082;2024-02-21T13:57:00;10.80;;;3.40;;
3155;SDS011;1588;50.892;7.082;2024-02-21T14:02:03;7.93;;;3.13;;
3155;SDS011;1588;50.892;7.082;2024-02-21T14:07:09;8.10;;;3.13;;
3155;SDS011;1588;50.892;7.082;2024-02-21T14:17:18;9.43;;;2.83;;
3155;SDS011;1588;50.892;7.082;2024-02-21T14:22:22;6.87;;;3.37;;
3155;SDS011;1588;50.892;7.082;2024-02-21T14:27:31;3.40;;;2.00;;
3155;SDS011;1588;50.892;7.082;2024-02-21T14:32:36;8.80;;;3.93;;
3155;SDS011;1588;50.892;7.082;2024-02-21T14:37:40;8.00;;;2.63;;
3155;SDS011;1588;50.892;7.082;2024-02-21T14:42:43;17.57;;;3.03;;
3155;SDS011;1588;50.892;7.082;2024-02-21T14:47:46;9.57;;;2.50;;
3155;SDS011;1588;50.892;7.082;2024-02-21T14:52:57;7.60;;;2.60;;
3155;SDS011;1588;50.892;7.082;2024-02-21T14:58:01;7.30;;;2.73;;
3155;SDS011;1588;50.892;7.082;2024-02-21T15:03:07;5.73;;;2.87;;
3155;SDS011;1588;50.892;7.082;2024-02-21T15:08:20;4.90;;;2.90;;
3155;SDS011;1588;50.892;7.082;2024-02-21T15:13:22;13.50;;;3.23;;
3155;SDS011;1588;50.892;7.082;2024-02-21T15:18:25;8.63;;;2.33;;
3155;SDS011;1588;50.892;7.082;2024-02-21T15:23:30;11.97;;;2.70;;
3155;SDS011;1588;50.892;7.082;2024-02-21T15:28:32;5.50;;;2.27;;
3155;SDS011;1588;50.892;7.082;2024-02-21T15:33:35;9.17;;;2.63;;
3155;SDS011;1588;50.892;7.082;2024-02-21T15:38:39;12.17;;;2.20;;
3155;SDS011;1588;50.892;7.082;2024-02-21T15:43:41;10.90;;;2.23;;
3155;SDS011;1588;50.892;7.082;2024-02-21T15:48:44;6.70;;;2.90;;
3155;SDS011;1588;50.892;7.082;2024-02-21T15:53:48;4.77;;;2.00;;
3155;SDS011;1588;50.892;7.082;2024-02-21T15:58:51;6.17;;;2.13;;
3155;SDS011;1588;50.892;7.082;2024-02-21T16:03:53;5.97;;;2.60;;
3155;SDS011;1588;50.892;7.082;2024-02-21T16:09:06;4.33;;;2.43;;
3155;SDS011;1588;50.892;7.082;2024-02-21T16:14:09;7.00;;;2.10;;
3155;SDS011;1588;50.892;7.082;2024-02-21T16:19:12;5.63;;;2.53;;
3155;SDS011;1588;50.892;7.082;2024-02-21T16:24:16;11.03;;;2.33;;
3155;SDS011;1588;50.892;7.082;2024-02-21T16:29:22;8.60;;;2.10;;
3155;SDS011;1588;50.892;7.082;2024-02-21T16:34:24;5.73;;;2.03;;
3155;SDS011;1588;50.892;7.082;2024-02-21T16:39:28;4.50;;;2.50;;
3155;SDS011;1588;50.892;7.082;2024-02-21T16:44:31;4.93;;;2.23;;
3155;SDS011;1588;50.892;7.082;2024-02-21T16:49:33;7.20;;;2.40;;
3155;SDS011;1588;50.892;7.082;2024-02-21T16:54:37;5.47;;;2.50;;
3155;SDS011;1588;50.892;7.082;2024-02-21T16:59:40;10.80;;;1.93;;
3155;SDS011;1588;50.892;7.082;2024-02-21T17:04:43;5.03;;;2.57;;
3155;SDS011;1588;50.892;7.082;2024-02-21T17:09:47;10.47;;;2.90;;
3155;SDS011;1588;50.892;7.082;2024-02-21T17:14:49;9.90;;;2.10;;
3155;SDS011;1588;50.892;7.082;2024-02-21T17:19:52;7.13;;;2.87;;
3155;SDS011;1588;50.892;7.082;2024-02-21T17:25:01;5.33;;;2.27;;
3155;SDS011;1588;50.892;7.082;2024-02-21T17:30:10;7.40;;;2.33;;
3155;SDS011;1588;50.892;7.082;2024-02-21T17:35:17;7.17;;;2.70;;
3155;SDS011;1588;50.892;7.082;2024-02-21T17:40:22;10.80;;;2.77;;
3155;SDS011;1588;50.892;7.082;2024-02-21T17:45:25;8.83;;;2.47;;
3155;SDS011;1588;50.892;7.082;2024-02-21T17:50:28;6.50;;;2.60;;
3155;SDS011;1588;50.892;7.082;2024-02-21T17:55:32;8.90;;;2.47;;
3155;SDS011;1588;50.892;7.082;2024-02-21T18:00:35;7.53;;;3.00;;
3155;SDS011;1588;50.892;7.082;2024-02-21T18:05:42;8.57;;;2.33;;
3155;SDS011;1588;50.892;7.082;2024-02-21T18:10:46;7.67;;;2.30;;
3155;SDS011;1588;50.892;7.082;2024-02-21T18:15:48;6.90;;;2.73;;
3155;SDS011;1588;50.892;7.082;2024-02-21T18:20:51;8.60;;;2.47;;
3155;SDS011;1588;50.892;7.082;2024-02-21T18:25:55;10.40;;;2.73;;
3155;SDS011;1588;50.892;7.082;2024-02-21T18:30:59;4.47;;;2.37;;
3155;SDS011;1588;50.892;7.082;2024-02-21T18:36:02;12.70;;;3.17;;
3155;SDS011;1588;50.892;7.082;2024-02-21T18:41:06;6.73;;;2.67;;
3155;SDS011;1588;50.892;7.082;2024-02-21T18:46:28;4.80;;;2.93;;
3155;SDS011;1588;50.892;7.082;2024-02-21T18:51:43;8.53;;;3.27;;
3155;SDS011;1588;50.892;7.082;2024-02-21T18:56:51;5.13;;;3.10;;
3155;SDS011;1588;50.892;7.082;2024-02-21T19:01:55;8.77;;;3.90;;
3155;SDS011;1588;50.892;7.082;2024-02-21T19:06:59;6.10;;;3.00;;
3155;SDS011;1588;50.892;7.082;2024-02-21T19:12:05;7.67;;;2.83;;
3155;SDS011;1588;50.892;7.082;2024-02-21T19:17:08;6.43;;;3.30;;
3155;SDS011;1588;50.892;7.082;2024-02-21T19:22:10;7.90;;;3.50;;
3155;SDS011;1588;50.892;7.082;2024-02-21T19:27:15;10.90;;;3.87;;
3155;SDS011;1588;50.892;7.082;2024-02-21T19:32:17;11.77;;;3.67;;
3155;SDS011;1588;50.892;7.082;2024-02-21T19:37:22;6.37;;;3.47;;
3155;SDS011;1588;50.892;7.082;2024-02-21T19:42:26;8.30;;;3.83;;
3155;SDS011;1588;50.892;7.082;2024-02-21T19:47:29;6.90;;;4.10;;
3155;SDS011;1588;50.892;7.082;2024-02-21T19:52:32;8.47;;;3.37;;
3155;SDS011;1588;50.892;7.082;2024-02-21T19:57:36;10.10;;;4.53;;
3155;SDS011;1588;50.892;7.082;2024-02-21T20:02:39;11.50;;;3.53;;
3155;SDS011;1588;50.892;7.082;2024-02-21T20:07:43;6.13;;;3.50;;
3155;SDS011;1588;50.892;7.082;2024-02-21T20:12:47;11.07;;;3.70;;
3155;SDS011;1588;50.892;7.082;2024-02-21T20:17:50;10.67;;;4.00;;
3155;SDS011;1588;50.892;7.082;2024-02-21T20:22:55;6.43;;;2.80;;
3155;SDS011;1588;50.892;7.082;2024-02-21T20:28:00;10.70;;;4.30;;
3155;SDS011;1588;50.892;7.082;2024-02-21T20:33:04;6.93;;;3.37;;
3155;SDS011;1588;50.892;7.082;2024-02-21T20:38:07;14.50;;;3.40;;
3155;SDS011;1588;50.892;7.082;2024-02-21T20:43:12;11.10;;;3.50;;
3155;SDS011;1588;50.892;7.082;2024-02-21T20:48:15;10.20;;;3.33;;
3155;SDS011;1588;50.892;7.082;2024-02-21T20:53:17;8.07;;;3.37;;
3155;SDS011;1588;50.892;7.082;2024-02-21T20:58:25;5.00;;;3.40;;
3155;SDS011;1588;50.892;7.082;2024-02-21T21:03:27;9.07;;;3.50;;
3155;SDS011;1588;50.892;7.082;2024-02-21T21:08:32;6.73;;;3.93;;
3155;SDS011;1588;50.892;7.082;2024-02-21T21:13:36;3.97;;;3.20;;
3155;SDS011;1588;50.892;7.082;2024-02-21T21:18:38;4.10;;;3.00;;
3155;SDS011;1588;50.892;7.082;2024-02-21T21:23:41;6.83;;;3.40;;
3155;SDS011;1588;50.892;7.082;2024-02-21T21:28:46;9.83;;;3.50;;
3155;SDS011;1588;50.892;7.082;2024-02-21T21:33:48;8.23;;;2.90;;
3155;SDS011;1588;50.892;7.082;2024-02-21T21:38:51;4.30;;;2.80;;
3155;SDS011;1588;50.892;7.082;2024-02-21T21:43:55;3.70;;;2.63;;
3155;SDS011;1588;50.892;7.082;2024-02-21T21:48:57;5.03;;;3.00;;
3155;SDS011;1588;50.892;7.082;2024-02-21T21:54:01;5.50;;;2.83;;
3155;SDS011;1588;50.892;7.082;2024-02-21T21:59:06;6.00;;;2.40;;
3155;SDS011;1588;50.892;7.082;2024-02-21T22:04:11;7.93;;;2.70;;
3155;SDS011;1588;50.892;7.082;2024-02-21T22:09:14;2.87;;;2.17;;
3155;SDS011;1588;50.892;7.082;2024-02-21T22:14:18;5.10;;;2.17;;
3155;SDS011;1588;50.892;7.082;2024-02-21T22:19:20;2.87;;;2.00;;
3155;SDS011;1588;50.892;7.082;2024-02-21T22:24:23;3.70;;;2.20;;
3155;SDS011;1588;50.892;7.082;2024-02-21T22:29:26;2.27;;;1.90;;
3155;SDS011;1588;50.892;7.082;2024-02-21T22:34:29;2.13;;;1.90;;
3155;SDS011;1588;50.892;7.082;2024-02-21T22:39:32;2.17;;;1.93;;
3155;SDS011;1588;50.892;7.082;2024-02-21T22:44:40;3.00;;;1.93;;
3155;SDS011;1588;50.892;7.082;2024-02-21T22:49:44;6.80;;;1.77;;
3155;SDS011;1588;50.892;7.082;2024-02-21T22:54:46;2.27;;;1.63;;
3155;SDS011;1588;50.892;7.082;2024-02-21T22:59:50;2.53;;;1.77;;
3155;SDS011;1588;50.892;7.082;2024-02-21T23:04:53;3.03;;;1.93;;
3155;SDS011;1588;50.892;7.082;2024-02-21T23:09:55;2.50;;;1.73;;
3155;SDS011;1588;50.892;7.082;2024-02-21T23:15:00;3.20;;;1.90;;
3155;SDS011;1588;50.892;7.082;2024-02-21T23:20:03;2.57;;;1.60;;
3155;SDS011;1588;50.892;7.082;2024-02-21T23:25:09;1.70;;;1.37;;
3155;SDS011;1588;50.892;7.082;2024-02-21T23:30:14;3.70;;;1.50;;
3155;SDS011;1588;50.892;7.082;2024-02-21T23:35:17;4.30;;;1.37;;
3155;SDS011;1588;50.892;7.082;2024-02-21T23:40:20;5.33;;;1.30;;
3155;SDS011;1588;50.892;7.082;2024-02-21T23:45:24;1.43;;;1.20;;
3155;SDS011;1588;50.892;7.082;2024-02-21T23:50:26;1.90;;;1.30;;
3155;SDS011;1588;50.892;7.082;2024-02-21T23:55:28;5.77;;;1.50;;
